createdAt,value
2023-03-23T16:00:18.832Z,99301.63
2023-03-23T16:02:47.621Z,99304.75
2023-03-23T16:05:16.012Z,99300.41
2023-03-23T16:07:43.596Z,99300.06
2023-03-23T16:10:18.090Z,99303.53
2023-03-23T16:12:46.042Z,99309.75
2023-03-23T16:15:16.276Z,99300.06
2023-03-23T16:17:44.907Z,99305.47
2023-03-23T16:20:15.755Z,99302.13
2023-03-23T16:22:43.422Z,99308.97
2023-03-23T16:25:12.676Z,99313.91
2023-03-23T16:27:44.411Z,99308.53
2023-03-23T16:30:22.770Z,99313.91
2023-03-23T16:32:52.501Z,99311.91
2023-03-23T16:35:22.456Z,99308.13
2023-03-23T16:38:07.383Z,99315.16
2023-03-23T16:40:35.371Z,99326.59
2023-03-23T16:43:09.084Z,99318.56
2023-03-23T16:45:41.648Z,99319.69
2023-03-23T16:48:11.991Z,99314.47
2023-03-23T16:50:40.211Z,99319.88
2023-03-23T16:53:09.794Z,99324.03
2023-03-23T16:55:38.239Z,99318.41
2023-03-23T16:58:16.539Z,99328.00
2023-03-23T17:00:53.693Z,99331.88
2023-03-23T17:03:22.700Z,99328.16
2023-03-23T17:05:51.890Z,99324.66
2023-03-23T17:08:21.254Z,99328.88
2023-03-23T17:10:49.589Z,99314.22
2023-03-23T17:13:17.901Z,99314.34
2023-03-23T17:15:48.866Z,99320.69
2023-03-23T17:18:17.401Z,99319.16
2023-03-23T17:20:46.413Z,99312.22
2023-03-23T17:23:26.255Z,99319.03
2023-03-23T17:25:54.070Z,99314.50
2023-03-23T17:28:22.989Z,99316.81
2023-03-23T17:31:01.219Z,99322.34
2023-03-23T17:33:29.176Z,99311.78
2023-03-23T17:35:58.306Z,99312.59
2023-03-23T17:38:28.513Z,99310.38
2023-03-23T17:41:01.306Z,99308.88
2023-03-23T17:43:29.572Z,99313.88
2023-03-23T17:45:59.203Z,99314.84
2023-03-23T17:48:27.256Z,99318.47
2023-03-23T17:50:57.678Z,99322.34
2023-03-23T17:56:11.311Z,99331.00
2023-03-23T17:58:39.214Z,99334.28
2023-03-23T18:01:08.786Z,99342.72
2023-03-23T18:03:37.603Z,99344.47
2023-03-23T18:06:28.561Z,99342.84
2023-03-23T18:08:56.771Z,99340.38
2023-03-23T18:11:24.677Z,99338.38
2023-03-23T18:13:52.321Z,99339.19
2023-03-23T18:16:21.465Z,99351.13
2023-03-23T18:18:49.452Z,99342.59
2023-03-23T18:21:18.096Z,99339.34
2023-03-23T18:23:58.402Z,99344.13
2023-03-23T18:26:27.792Z,99340.16
2023-03-23T18:28:55.919Z,99341.06
2023-03-23T18:31:25.205Z,99340.84
2023-03-23T18:36:55.172Z,99329.47
2023-03-23T18:39:25.168Z,99332.75
2023-03-23T18:45:23.718Z,99330.28
2023-03-23T18:47:55.300Z,99327.34
2023-03-23T18:50:33.010Z,99330.44
2023-03-23T18:53:02.911Z,99333.47
2023-03-23T18:55:44.568Z,99335.94
2023-03-23T18:58:12.978Z,99339.69
2023-03-23T19:00:45.763Z,99338.63
2023-03-23T19:03:21.683Z,99338.97
2023-03-23T19:06:17.644Z,99339.53
2023-03-23T19:08:45.800Z,99346.94
2023-03-23T19:11:13.860Z,99343.19
2023-03-23T19:13:53.898Z,99336.25
2023-03-23T19:16:31.011Z,99330.19
2023-03-23T19:18:58.759Z,99330.41
2023-03-23T19:21:29.048Z,99331.44
2023-03-23T19:24:00.042Z,99332.41
2023-03-23T19:26:36.650Z,99334.97
2023-03-23T19:31:40.841Z,99326.69
2023-03-23T19:34:11.885Z,99330.88
2023-03-23T19:36:40.310Z,99320.91
2023-03-23T19:39:10.475Z,99317.97
2023-03-23T19:41:38.954Z,99323.97
2023-03-23T19:44:08.493Z,99319.63
2023-03-23T19:46:38.206Z,99318.22
2023-03-23T19:49:07.699Z,99320.34
2023-03-23T19:51:36.662Z,99306.19
2023-03-23T19:54:07.156Z,99302.75
2023-03-23T19:56:36.798Z,99293.88
2023-03-23T19:59:05.312Z,99300.66
2023-03-23T20:01:33.653Z,99303.00
2023-03-23T20:04:05.460Z,99302.19
2023-03-23T20:06:34.657Z,99293.16
2023-03-23T20:09:08.621Z,99302.63
2023-03-23T20:11:39.168Z,99291.88
2023-03-23T20:14:07.894Z,99292.22
2023-03-23T20:16:36.025Z,99289.53
2023-03-23T20:19:05.778Z,99296.31
2023-03-23T20:21:36.386Z,99279.81
2023-03-23T20:24:06.346Z,99276.50
2023-03-23T20:26:36.866Z,99286.03
2023-03-23T20:29:07.954Z,99282.38
2023-03-23T20:31:42.274Z,99277.47
2023-03-23T20:34:13.959Z,99275.00
2023-03-23T20:36:45.136Z,99271.50
2023-03-23T20:39:14.694Z,99273.25
2023-03-23T20:41:45.570Z,99259.75
2023-03-23T20:44:17.774Z,99255.56
2023-03-23T20:46:46.468Z,99251.56
2023-03-23T20:49:15.991Z,99254.50
2023-03-23T20:51:47.597Z,99254.16
2023-03-23T20:54:16.455Z,99244.19
2023-03-23T20:56:48.359Z,99239.84
2023-03-23T20:59:18.452Z,99243.13
2023-03-23T21:01:46.416Z,99241.03
2023-03-23T21:04:21.180Z,99236.47
2023-03-23T21:06:50.279Z,99230.03
2023-03-23T21:09:18.952Z,99230.50
2023-03-23T21:11:49.016Z,99229.22
2023-03-23T21:14:17.365Z,99220.19
2023-03-23T21:16:45.338Z,99222.78
2023-03-23T21:19:15.218Z,99218.19
2023-03-23T21:21:56.329Z,99220.97
2023-03-23T21:24:30.772Z,99216.06
2023-03-23T21:27:02.053Z,99214.56
2023-03-23T21:29:45.398Z,99205.44
2023-03-23T21:32:20.734Z,99206.38
2023-03-23T21:35:01.712Z,99206.38
2023-03-23T21:37:35.081Z,99196.91
2023-03-23T21:40:04.270Z,99196.78
2023-03-23T21:42:34.631Z,99194.66
2023-03-23T21:45:03.010Z,99188.22
2023-03-23T21:47:32.106Z,99179.44
2023-03-23T21:50:06.487Z,99185.53
2023-03-23T21:52:36.862Z,99180.50
2023-03-23T21:55:05.043Z,99175.34
2023-03-23T21:57:34.826Z,99174.41
2023-03-23T22:00:05.327Z,99166.56
2023-03-23T22:02:34.904Z,99162.09
2023-03-23T22:05:10.614Z,99162.94
2023-03-23T22:07:39.781Z,99163.88
2023-03-23T22:10:09.109Z,99162.00
2023-03-23T22:12:43.200Z,99158.38
2023-03-23T22:15:18.852Z,99153.06
2023-03-23T22:17:48.847Z,99155.53
2023-03-23T22:20:17.880Z,99152.50
2023-03-23T22:22:45.916Z,99147.81
2023-03-23T22:25:15.272Z,99150.38
2023-03-23T22:27:42.868Z,99140.19
2023-03-23T22:30:11.199Z,99141.38
2023-03-23T22:32:39.264Z,99144.31
2023-03-23T22:35:07.609Z,99146.75
2023-03-23T22:37:36.536Z,99145.53
2023-03-23T22:40:07.205Z,99140.16
2023-03-23T22:42:36.120Z,99142.59
2023-03-23T22:45:03.892Z,99140.59
2023-03-23T22:47:31.663Z,99141.34
2023-03-23T22:50:03.067Z,99141.41
2023-03-23T22:52:31.570Z,99134.84
2023-03-23T22:55:00.706Z,99138.56
2023-03-23T22:57:28.441Z,99134.94
2023-03-23T22:59:56.191Z,99137.88
2023-03-23T23:02:23.873Z,99132.59
2023-03-23T23:04:54.421Z,99118.66
2023-03-23T23:07:22.155Z,99107.84
2023-03-23T23:09:50.544Z,99104.25
2023-03-23T23:12:21.585Z,99101.75
2023-03-23T23:14:49.817Z,99108.13
2023-03-23T23:17:17.725Z,99114.16
2023-03-23T23:19:45.406Z,99113.31
2023-03-23T23:22:18.832Z,99122.94
2023-03-23T23:24:47.554Z,99105.13
2023-03-23T23:27:15.498Z,99104.72
2023-03-23T23:29:44.742Z,99108.81
2023-03-23T23:32:12.517Z,99116.94
2023-03-23T23:34:40.271Z,99113.41
2023-03-23T23:37:09.022Z,99111.44
2023-03-23T23:39:38.476Z,99102.78
2023-03-23T23:42:08.692Z,99088.75
2023-03-23T23:44:36.795Z,99095.84
2023-03-23T23:47:06.486Z,99103.25
2023-03-23T23:49:34.350Z,99112.38
2023-03-23T23:52:02.179Z,99099.88
2023-03-23T23:54:30.618Z,99098.56
2023-03-23T23:57:00.014Z,99087.69
2023-03-23T23:59:28.793Z,99088.88
